createdAt,value
2023-03-08T00:00:23.011Z,2.8
2023-03-08T00:01:26.745Z,2.8
2023-03-08T00:02:30.776Z,2.7
2023-03-08T00:03:33.315Z,2.7
2023-03-08T00:04:36.509Z,2.7
2023-03-08T00:05:40.378Z,2.7
2023-03-08T00:06:43.739Z,2.7
2023-03-08T00:07:46.806Z,2.7
2023-03-08T00:08:49.796Z,2.7
2023-03-08T00:09:53.637Z,2.7
2023-03-08T00:10:56.759Z,2.7
2023-03-08T00:12:00.140Z,2.7
2023-03-08T00:13:03.264Z,2.7
2023-03-08T00:14:06.349Z,2.7
2023-03-08T00:15:08.809Z,2.7
2023-03-08T00:16:13.001Z,2.7
2023-03-08T00:17:16.382Z,2.7
2023-03-08T00:18:19.889Z,2.7
2023-03-08T00:19:23.249Z,2.7
2023-03-08T00:20:26.623Z,2.7
2023-03-08T00:21:29.338Z,2.7
2023-03-08T00:22:32.137Z,2.7
2023-03-08T00:23:35.533Z,2.7
2023-03-08T00:24:39.039Z,2.7
2023-03-08T00:25:42.147Z,2.7
2023-03-08T00:26:45.299Z,2.7
2023-03-08T00:27:48.679Z,2.7
2023-03-08T00:28:52.031Z,2.7
2023-03-08T00:29:54.880Z,2.7
2023-03-08T00:30:58.328Z,2.7
2023-03-08T00:32:03.396Z,2.7
2023-03-08T00:33:07.010Z,2.7
2023-03-08T00:34:09.858Z,2.7
2023-03-08T00:35:12.275Z,2.7
2023-03-08T00:36:14.701Z,2.7
2023-03-08T00:37:17.571Z,2.7
2023-03-08T00:38:20.844Z,2.6
2023-03-08T00:39:23.633Z,2.6
2023-03-08T00:40:27.362Z,2.6
2023-03-08T00:41:30.718Z,2.6
2023-03-08T00:42:33.849Z,2.6
2023-03-08T00:43:36.685Z,2.6
2023-03-08T00:44:40.038Z,2.6
2023-03-08T00:45:43.307Z,2.6
2023-03-08T00:46:47.008Z,2.6
2023-03-08T00:47:51.545Z,2.6
2023-03-08T00:48:54.275Z,2.6
2023-03-08T00:49:57.654Z,2.6
2023-03-08T00:51:00.968Z,2.6
2023-03-08T00:52:04.228Z,2.6
2023-03-08T00:53:07.099Z,2.6
2023-03-08T00:54:09.811Z,2.6
2023-03-08T00:55:12.819Z,2.6
2023-03-08T00:56:15.874Z,2.6
2023-03-08T00:57:19.693Z,2.6
2023-03-08T00:58:23.332Z,2.6
2023-03-08T00:59:25.886Z,2.6
2023-03-08T01:00:28.403Z,2.5
2023-03-08T01:01:32.064Z,2.6
2023-03-08T01:02:35.396Z,2.5
2023-03-08T01:03:39.035Z,2.5
2023-03-08T01:04:42.065Z,2.5
2023-03-08T01:05:45.756Z,2.5
2023-03-08T01:06:48.944Z,2.5
2023-03-08T01:07:51.651Z,2.5
2023-03-08T01:08:55.289Z,2.5
2023-03-08T01:09:57.863Z,2.5
2023-03-08T01:11:01.950Z,2.5
2023-03-08T01:12:05.361Z,2.5
2023-03-08T01:13:08.462Z,2.5
2023-03-08T01:14:11.178Z,2.5
2023-03-08T01:15:14.057Z,2.5
2023-03-08T01:16:17.846Z,2.5
2023-03-08T01:17:21.606Z,2.5
2023-03-08T01:18:24.743Z,2.5
2023-03-08T01:19:28.666Z,2.5
2023-03-08T01:20:32.016Z,2.5
2023-03-08T01:21:35.217Z,2.5
2023-03-08T01:22:38.297Z,2.5
2023-03-08T01:23:43.260Z,2.5
2023-03-08T01:24:45.923Z,2.5
2023-03-08T01:25:49.324Z,2.5
2023-03-08T01:26:52.416Z,2.5
2023-03-08T01:27:55.484Z,2.5
2023-03-08T01:28:58.393Z,2.5
2023-03-08T01:30:00.997Z,2.4
2023-03-08T01:31:04.319Z,2.5
2023-03-08T01:32:07.338Z,2.4
2023-03-08T01:33:10.827Z,2.5
2023-03-08T01:34:14.342Z,2.4
2023-03-08T01:35:18.311Z,2.4
2023-03-08T01:36:21.521Z,2.4
2023-03-08T01:37:24.529Z,2.4
2023-03-08T01:38:27.530Z,2.4
2023-03-08T01:39:30.601Z,2.5
2023-03-08T01:40:33.659Z,2.4
2023-03-08T01:41:36.808Z,2.4
2023-03-08T01:42:39.902Z,2.4
2023-03-08T01:43:43.511Z,2.4
2023-03-08T01:44:46.645Z,2.4
2023-03-08T01:45:49.434Z,2.4
2023-03-08T01:46:52.592Z,2.4
2023-03-08T01:47:55.589Z,2.4
2023-03-08T01:48:59.108Z,2.4
2023-03-08T01:50:02.861Z,2.4
2023-03-08T01:51:07.194Z,2.4
2023-03-08T01:52:10.530Z,2.4
2023-03-08T01:53:13.624Z,2.4
2023-03-08T01:54:16.645Z,2.4
2023-03-08T01:55:20.373Z,2.4
2023-03-08T01:56:23.177Z,2.4
2023-03-08T01:57:26.922Z,2.4
2023-03-08T01:58:30.618Z,2.4
2023-03-08T01:59:33.649Z,2.4
2023-03-08T02:00:37.334Z,2.4
2023-03-08T02:01:40.121Z,2.4
2023-03-08T02:02:43.210Z,2.4
2023-03-08T02:03:46.497Z,2.4
2023-03-08T02:04:49.667Z,2.5
2023-03-08T02:05:53.335Z,2.4
2023-03-08T02:06:57.375Z,2.5
2023-03-08T02:08:00.772Z,2.5
2023-03-08T02:09:04.568Z,2.5
2023-03-08T02:10:07.528Z,2.5
2023-03-08T02:11:11.184Z,2.5
2023-03-08T02:12:13.496Z,2.5
2023-03-08T02:13:16.199Z,2.5
2023-03-08T02:14:18.446Z,2.5
2023-03-08T02:15:21.538Z,2.6
2023-03-08T02:16:24.898Z,2.6
2023-03-08T02:17:28.718Z,2.6
2023-03-08T02:18:31.431Z,2.6
2023-03-08T02:19:34.841Z,2.6
2023-03-08T02:20:37.913Z,2.6
2023-03-08T02:21:41.142Z,2.6
2023-03-08T02:22:45.335Z,2.6
2023-03-08T02:23:48.430Z,2.6
2023-03-08T02:24:51.547Z,2.7
2023-03-08T02:25:54.816Z,2.7
2023-03-08T02:26:58.297Z,2.7
2023-03-08T02:28:01.631Z,2.7
2023-03-08T02:29:04.169Z,2.7
2023-03-08T02:30:07.784Z,2.7
2023-03-08T02:31:10.783Z,2.7
2023-03-08T02:32:13.776Z,2.7
2023-03-08T02:33:17.445Z,2.7
2023-03-08T02:34:20.532Z,2.7
2023-03-08T02:35:23.662Z,2.7
2023-03-08T02:36:26.811Z,2.7
2023-03-08T02:37:30.182Z,2.7
2023-03-08T02:38:34.331Z,2.8
2023-03-08T02:39:38.046Z,2.8
2023-03-08T02:40:41.688Z,2.8
2023-03-08T02:41:44.406Z,2.8
2023-03-08T02:42:48.405Z,2.8
2023-03-08T02:43:52.970Z,2.8
2023-03-08T02:44:56.234Z,2.8
2023-03-08T02:45:59.325Z,2.8
2023-03-08T02:47:02.184Z,2.8
2023-03-08T02:48:05.574Z,2.8
2023-03-08T02:49:08.653Z,2.8
2023-03-08T02:50:12.388Z,2.8
2023-03-08T02:51:16.220Z,2.8
2023-03-08T02:52:20.216Z,2.9
2023-03-08T02:53:23.670Z,2.9
2023-03-08T02:54:27.835Z,2.9
2023-03-08T02:55:30.543Z,2.9
2023-03-08T02:56:34.268Z,2.9
2023-03-08T02:57:37.323Z,2.9
2023-03-08T02:58:40.104Z,2.9
2023-03-08T02:59:43.564Z,2.9
2023-03-08T03:00:47.576Z,2.9
2023-03-08T03:01:50.474Z,2.9
2023-03-08T03:02:53.757Z,2.9
2023-03-08T03:03:56.520Z,2.9
2023-03-08T03:04:59.235Z,2.9
2023-03-08T03:06:02.079Z,2.9
2023-03-08T03:07:05.609Z,2.9
2023-03-08T03:08:08.888Z,2.9
2023-03-08T03:09:11.902Z,2.9
2023-03-08T03:10:15.545Z,2.9
2023-03-08T03:11:18.632Z,2.9
2023-03-08T03:12:22.072Z,2.9
2023-03-08T03:13:24.783Z,2.9
2023-03-08T03:14:27.842Z,2.9
2023-03-08T03:15:31.694Z,2.9
2023-03-08T03:16:34.277Z,2.9
2023-03-08T03:17:37.182Z,2.9
2023-03-08T03:18:40.294Z,2.9
2023-03-08T03:19:43.080Z,2.9
2023-03-08T03:20:46.097Z,2.9
2023-03-08T03:21:49.466Z,2.9
2023-03-08T03:22:52.517Z,2.9
2023-03-08T03:23:55.870Z,2.9
2023-03-08T03:24:58.906Z,2.9
2023-03-08T03:26:02.833Z,2.9
2023-03-08T03:27:05.982Z,2.8
2023-03-08T03:28:09.359Z,2.8
2023-03-08T03:29:12.191Z,2.8
2023-03-08T03:30:15.395Z,2.8
2023-03-08T03:31:19.022Z,2.8
2023-03-08T03:32:22.493Z,2.8
2023-03-08T03:33:25.350Z,2.8
2023-03-08T03:34:29.041Z,2.8
2023-03-08T03:35:32.007Z,2.8
2023-03-08T03:36:35.829Z,2.8
2023-03-08T03:37:39.202Z,2.7
2023-03-08T03:38:42.897Z,2.7
2023-03-08T03:39:45.821Z,2.7
2023-03-08T03:40:49.573Z,2.7
2023-03-08T03:41:53.726Z,2.7
2023-03-08T03:42:57.365Z,2.7
2023-03-08T03:44:00.409Z,2.7
2023-03-08T03:45:03.509Z,2.7
2023-03-08T03:46:06.660Z,2.7
2023-03-08T03:47:10.640Z,2.7
2023-03-08T03:48:13.811Z,2.7
2023-03-08T03:49:16.344Z,2.7
2023-03-08T03:50:18.788Z,2.7
2023-03-08T03:51:22.259Z,2.7
2023-03-08T03:52:25.015Z,2.7
2023-03-08T03:53:28.363Z,2.8
2023-03-08T03:54:32.076Z,2.8
2023-03-08T03:55:35.404Z,2.7
2023-03-08T03:56:38.219Z,2.8
2023-03-08T03:57:42.490Z,2.8
2023-03-08T03:58:45.516Z,2.8
2023-03-08T03:59:49.561Z,2.8
2023-03-08T04:00:52.705Z,2.8
2023-03-08T04:01:56.024Z,2.8
2023-03-08T04:02:59.112Z,2.7
2023-03-08T04:04:03.151Z,2.8
2023-03-08T04:05:06.694Z,2.8
2023-03-08T04:06:10.394Z,2.8
2023-03-08T04:07:13.478Z,2.8
2023-03-08T04:08:16.599Z,2.8
2023-03-08T04:09:19.397Z,2.8
2023-03-08T04:10:22.912Z,2.8
2023-03-08T04:11:26.176Z,2.8
2023-03-08T04:12:29.018Z,2.8
2023-03-08T04:13:33.214Z,2.8
2023-03-08T04:14:36.070Z,2.8
2023-03-08T04:15:39.605Z,2.8
2023-03-08T04:16:42.461Z,2.8
2023-03-08T04:17:45.474Z,2.8
2023-03-08T04:18:49.207Z,2.8
2023-03-08T04:19:52.944Z,2.8
2023-03-08T04:20:56.533Z,2.8
2023-03-08T04:21:59.807Z,2.9
2023-03-08T04:23:02.781Z,2.9
2023-03-08T04:24:05.922Z,2.9
2023-03-08T04:25:09.265Z,2.9
2023-03-08T04:26:12.662Z,2.9
2023-03-08T04:27:15.697Z,2.9
2023-03-08T04:28:17.703Z,2.8
2023-03-08T04:29:21.620Z,2.8
2023-03-08T04:30:24.414Z,2.8
2023-03-08T04:31:27.703Z,2.8
2023-03-08T04:32:31.465Z,2.8
2023-03-08T04:33:34.734Z,2.8
2023-03-08T04:34:37.271Z,2.8
2023-03-08T04:35:39.925Z,2.8
2023-03-08T04:36:42.964Z,2.8
2023-03-08T04:37:49.711Z,2.8
2023-03-08T04:38:52.314Z,2.8
2023-03-08T04:39:55.700Z,2.8
2023-03-08T04:40:58.129Z,2.8
2023-03-08T04:42:00.773Z,2.8
2023-03-08T04:43:04.123Z,2.8
2023-03-08T04:44:06.891Z,2.7
2023-03-08T04:45:11.334Z,2.7
2023-03-08T04:46:14.394Z,2.7
2023-03-08T04:47:17.115Z,2.7
2023-03-08T04:48:20.399Z,2.7
2023-03-08T04:49:23.721Z,2.7
2023-03-08T04:50:27.072Z,2.7
2023-03-08T04:51:30.225Z,2.7
2023-03-08T04:52:34.234Z,2.7
2023-03-08T04:53:37.565Z,2.7
2023-03-08T04:54:40.572Z,2.7
2023-03-08T04:55:43.940Z,2.7
2023-03-08T04:56:47.293Z,2.7
2023-03-08T04:57:50.673Z,2.7
2023-03-08T04:58:54.402Z,2.7
2023-03-08T04:59:58.129Z,2.7
2023-03-08T05:01:02.385Z,2.7
2023-03-08T05:02:04.800Z,2.7
2023-03-08T05:03:08.199Z,2.7
2023-03-08T05:04:10.911Z,2.7
2023-03-08T05:05:14.497Z,2.7
2023-03-08T05:06:18.210Z,2.7
2023-03-08T05:07:21.970Z,2.7
2023-03-08T05:08:25.017Z,2.8
2023-03-08T05:09:28.710Z,2.8
2023-03-08T05:10:32.171Z,2.8
2023-03-08T05:11:35.453Z,2.7
2023-03-08T05:12:38.922Z,2.8
2023-03-08T05:13:42.361Z,2.7
2023-03-08T05:14:45.658Z,2.7
2023-03-08T05:15:48.904Z,2.7
2023-03-08T05:16:52.617Z,2.8
2023-03-08T05:17:55.951Z,2.8
2023-03-08T05:18:59.031Z,2.8
2023-03-08T05:20:02.433Z,2.7
2023-03-08T05:21:05.604Z,2.8
2023-03-08T05:22:08.524Z,2.7
2023-03-08T05:23:11.821Z,2.7
2023-03-08T05:24:14.536Z,2.7
2023-03-08T05:25:17.926Z,2.7
2023-03-08T05:26:21.360Z,2.8
2023-03-08T05:27:24.444Z,2.8
2023-03-08T05:28:27.250Z,2.8
2023-03-08T05:29:30.711Z,2.8
2023-03-08T05:30:33.764Z,2.8
2023-03-08T05:31:37.074Z,2.8
2023-03-08T05:32:41.700Z,2.8
2023-03-08T05:33:45.585Z,2.8
2023-03-08T05:34:49.140Z,2.8
2023-03-08T05:35:52.652Z,2.8
2023-03-08T05:36:56.122Z,2.8
2023-03-08T05:37:58.905Z,2.8
2023-03-08T05:39:02.042Z,2.8
2023-03-08T05:40:04.879Z,2.9
2023-03-08T05:41:07.773Z,2.8
2023-03-08T05:42:10.667Z,2.9
2023-03-08T05:43:14.119Z,2.9
2023-03-08T05:44:17.017Z,2.9
2023-03-08T05:45:20.631Z,2.9
2023-03-08T05:46:24.369Z,2.9
2023-03-08T05:47:27.799Z,2.9
2023-03-08T05:48:32.060Z,2.9
2023-03-08T05:49:34.892Z,2.9
2023-03-08T05:50:38.221Z,3
2023-03-08T05:51:41.350Z,3
2023-03-08T05:52:45.107Z,3
2023-03-08T05:53:47.911Z,3
2023-03-08T05:54:50.916Z,3
2023-03-08T05:55:54.295Z,3
2023-03-08T05:56:58.015Z,3.1
2023-03-08T05:58:01.069Z,3.1
2023-03-08T05:59:04.159Z,3.1
2023-03-08T06:00:07.880Z,3.1
2023-03-08T06:01:11.501Z,3.1
2023-03-08T06:02:15.320Z,3.1
2023-03-08T06:03:19.546Z,3.1
2023-03-08T06:04:24.066Z,3.1
2023-03-08T06:05:26.939Z,3.1
2023-03-08T06:06:30.393Z,3.1
2023-03-08T06:07:33.742Z,3.2
2023-03-08T06:08:36.469Z,3.2
2023-03-08T06:09:39.239Z,3.2
2023-03-08T06:10:42.035Z,3.2
2023-03-08T06:11:45.267Z,3.2
2023-03-08T06:12:48.637Z,3.2
2023-03-08T06:13:51.796Z,3.2
2023-03-08T06:14:55.248Z,3.2
2023-03-08T06:15:58.279Z,3.2
2023-03-08T06:17:01.434Z,3.2
2023-03-08T06:18:05.140Z,3.2
2023-03-08T06:19:08.690Z,3.2
2023-03-08T06:20:12.883Z,3.2
2023-03-08T06:21:16.342Z,3.2
2023-03-08T06:22:19.810Z,3.2
2023-03-08T06:23:23.514Z,3.2
2023-03-08T06:24:26.372Z,3.2
2023-03-08T06:25:30.039Z,3.2
2023-03-08T06:26:34.119Z,3.2
2023-03-08T06:27:37.196Z,3.2
2023-03-08T06:28:40.358Z,3.3
2023-03-08T06:29:42.866Z,3.3
2023-03-08T06:30:46.448Z,3.3
2023-03-08T06:31:49.387Z,3.3
2023-03-08T06:32:52.483Z,3.3
2023-03-08T06:33:56.210Z,3.4
2023-03-08T06:34:59.511Z,3.4
2023-03-08T06:36:03.401Z,3.4
2023-03-08T06:37:06.545Z,3.5
2023-03-08T06:38:10.559Z,3.5
2023-03-08T06:39:13.350Z,3.5
2023-03-08T06:40:17.011Z,3.5
2023-03-08T06:41:20.805Z,3.5
2023-03-08T06:42:42.405Z,3.5
2023-03-08T06:43:46.042Z,3.5
2023-03-08T06:44:48.277Z,3.6
2023-03-08T06:45:52.385Z,3.6
2023-03-08T06:46:55.943Z,3.6
2023-03-08T06:47:58.993Z,3.6
2023-03-08T06:49:02.395Z,3.6
2023-03-08T06:50:05.863Z,3.6
2023-03-08T06:51:10.317Z,3.6
2023-03-08T06:52:13.242Z,3.6
2023-03-08T06:53:16.538Z,3.6
2023-03-08T06:54:19.065Z,3.7
2023-03-08T06:55:21.872Z,3.7
2023-03-08T06:56:25.535Z,3.7
2023-03-08T06:57:28.620Z,3.7
2023-03-08T06:58:31.497Z,3.8
2023-03-08T06:59:34.966Z,3.7
2023-03-08T07:00:38.042Z,3.8
2023-03-08T07:01:42.428Z,3.8
2023-03-08T07:02:45.869Z,3.8
2023-03-08T07:03:48.307Z,3.8
2023-03-08T07:04:51.438Z,3.8
2023-03-08T07:05:54.545Z,3.8
2023-03-08T07:06:58.728Z,3.8
2023-03-08T07:08:01.908Z,3.9
2023-03-08T07:09:04.650Z,3.9
2023-03-08T07:10:07.638Z,3.9
2023-03-08T07:11:11.373Z,3.9
2023-03-08T07:12:14.663Z,3.9
2023-03-08T07:13:18.464Z,4
2023-03-08T07:14:22.174Z,3.9
2023-03-08T07:15:25.670Z,4
2023-03-08T07:16:28.768Z,4
2023-03-08T07:17:31.568Z,4
2023-03-08T07:18:34.456Z,4
2023-03-08T07:19:37.534Z,4
2023-03-08T07:20:41.231Z,4
2023-03-08T07:21:45.125Z,4
2023-03-08T07:22:49.415Z,4
2023-03-08T07:23:53.107Z,4
2023-03-08T07:24:56.900Z,4.1
2023-03-08T07:26:00.575Z,4.1
2023-03-08T07:27:03.750Z,4.1
2023-03-08T07:28:07.454Z,4.1
2023-03-08T07:29:10.236Z,4.2
2023-03-08T07:30:13.967Z,4.2
2023-03-08T07:31:17.061Z,4.2
2023-03-08T07:32:21.024Z,4.2
2023-03-08T07:33:25.234Z,4.2
2023-03-08T07:34:28.695Z,4.2
2023-03-08T07:35:31.848Z,4.2
2023-03-08T07:36:34.835Z,4.2
2023-03-08T07:37:37.993Z,4.2
2023-03-08T07:38:42.216Z,4.2
2023-03-08T07:39:45.372Z,4.2
2023-03-08T07:40:48.987Z,4.2
2023-03-08T07:41:51.844Z,4.2
2023-03-08T07:42:55.299Z,4.2
2023-03-08T07:43:58.910Z,4.2
2023-03-08T07:45:01.630Z,4.2
2023-03-08T07:46:04.933Z,4.2
2023-03-08T07:47:08.537Z,4.2
2023-03-08T07:48:11.877Z,4.3
2023-03-08T07:49:15.516Z,4.3
2023-03-08T07:50:18.529Z,4.3
2023-03-08T07:51:21.692Z,4.3
2023-03-08T07:52:24.247Z,4.3
2023-03-08T07:53:27.466Z,4.3
2023-03-08T07:54:31.438Z,4.3
2023-03-08T07:55:35.076Z,4.3
2023-03-08T07:56:37.804Z,4.3
2023-03-08T07:57:40.516Z,4.3
2023-03-08T07:58:43.668Z,4.3
2023-03-08T07:59:47.018Z,4.4
2023-03-08T08:00:49.858Z,4.3
2023-03-08T08:01:53.683Z,4.3
2023-03-08T08:02:57.157Z,4.3
2023-03-08T08:04:00.815Z,4.3
2023-03-08T08:05:04.429Z,4.4
2023-03-08T08:06:07.448Z,4.4
2023-03-08T08:07:10.232Z,4.5
2023-03-08T08:08:13.301Z,4.4
2023-03-08T08:09:16.816Z,4.5
2023-03-08T08:10:21.139Z,4.5
2023-03-08T08:11:24.520Z,4.5
2023-03-08T08:12:28.538Z,4.5
2023-03-08T08:13:31.877Z,4.5
2023-03-08T08:14:34.760Z,4.5
2023-03-08T08:15:38.782Z,4.5
2023-03-08T08:16:42.038Z,4.5
2023-03-08T08:17:45.828Z,4.5
2023-03-08T08:18:48.990Z,4.5
2023-03-08T08:19:52.492Z,4.5
2023-03-08T08:20:55.821Z,4.5
2023-03-08T08:21:59.120Z,4.6
2023-03-08T08:23:02.282Z,4.6
2023-03-08T08:24:05.629Z,4.6
2023-03-08T08:25:08.755Z,4.6
2023-03-08T08:26:12.733Z,4.6
2023-03-08T08:27:16.413Z,4.6
2023-03-08T08:28:19.548Z,4.6
2023-03-08T08:29:22.376Z,4.6
2023-03-08T08:30:25.067Z,4.6
2023-03-08T08:31:27.671Z,4.6
2023-03-08T08:32:30.349Z,4.5
2023-03-08T08:33:33.819Z,4.5
2023-03-08T08:34:37.086Z,4.5
2023-03-08T08:35:44.691Z,4.4
2023-03-08T08:36:48.312Z,4.4
2023-03-08T08:37:51.346Z,4.4
2023-03-08T08:38:53.520Z,4.4
2023-03-08T08:39:56.847Z,4.4
2023-03-08T08:41:00.030Z,4.4
2023-03-08T08:42:04.246Z,4.4
2023-03-08T08:43:07.288Z,4.4
2023-03-08T08:44:11.075Z,4.5
2023-03-08T08:45:14.532Z,4.5
2023-03-08T08:46:17.548Z,4.5
2023-03-08T08:47:20.540Z,4.5
2023-03-08T08:48:22.948Z,4.5
2023-03-08T08:49:25.954Z,4.5
2023-03-08T08:50:29.328Z,4.5
2023-03-08T08:51:32.721Z,4.5
2023-03-08T08:52:36.614Z,4.5
2023-03-08T08:53:40.284Z,4.5
2023-03-08T08:54:43.836Z,4.5
2023-03-08T08:55:46.666Z,4.5
2023-03-08T08:56:50.337Z,4.5
2023-03-08T08:57:54.536Z,4.5
2023-03-08T08:58:57.978Z,4.5
2023-03-08T09:00:01.041Z,4.5
2023-03-08T09:01:04.755Z,4.5
2023-03-08T09:02:10.858Z,4.5
2023-03-08T09:03:14.441Z,4.5
2023-03-08T09:04:18.212Z,4.5
2023-03-08T09:05:21.476Z,4.6
2023-03-08T09:06:25.137Z,4.6
2023-03-08T09:07:27.893Z,4.6
2023-03-08T09:08:31.086Z,4.7
2023-03-08T09:09:34.530Z,4.7
2023-03-08T09:10:37.928Z,4.7
2023-03-08T09:11:56.541Z,4.7
2023-03-08T09:13:00.856Z,4.7
2023-03-08T09:14:04.724Z,4.8
2023-03-08T09:15:08.118Z,4.8
2023-03-08T09:16:11.583Z,4.8
2023-03-08T09:17:14.527Z,4.9
2023-03-08T09:18:17.710Z,4.9
2023-03-08T09:19:20.714Z,4.9
2023-03-08T09:20:24.620Z,4.9
2023-03-08T09:21:28.761Z,4.9
2023-03-08T09:22:31.846Z,4.9
2023-03-08T09:23:35.293Z,4.9
2023-03-08T09:24:38.588Z,4.9
2023-03-08T09:25:41.718Z,4.9
2023-03-08T09:26:44.509Z,5
2023-03-08T09:27:48.385Z,5
2023-03-08T09:28:52.560Z,4.9
2023-03-08T09:29:55.735Z,4.9
2023-03-08T09:30:58.409Z,4.9
2023-03-08T09:32:01.417Z,4.9
2023-03-08T09:33:04.425Z,4.9
2023-03-08T09:34:08.183Z,4.9
2023-03-08T09:35:11.856Z,5
2023-03-08T09:36:15.280Z,5
2023-03-08T09:37:18.339Z,5.1
2023-03-08T09:38:22.123Z,5
2023-03-08T09:39:25.345Z,5.1
2023-03-08T09:40:28.798Z,5.1
2023-03-08T09:41:31.867Z,5.1
2023-03-08T09:42:34.981Z,5.1
2023-03-08T09:43:38.546Z,5.1
2023-03-08T09:44:42.780Z,5.1
2023-03-08T09:45:46.248Z,5.1
2023-03-08T09:46:49.524Z,5.1
2023-03-08T09:47:52.922Z,5.1
2023-03-08T09:48:55.933Z,5
2023-03-08T09:49:59.688Z,5
2023-03-08T09:51:02.720Z,5
2023-03-08T09:52:06.534Z,5
2023-03-08T09:53:09.259Z,5.1
2023-03-08T09:54:12.926Z,5.1
2023-03-08T09:55:15.856Z,5.1
2023-03-08T09:56:19.230Z,5.1
2023-03-08T09:57:22.221Z,5.1
2023-03-08T09:58:25.472Z,5.1
2023-03-08T09:59:28.963Z,5.1
2023-03-08T10:00:33.562Z,5.1
2023-03-08T10:01:37.572Z,5.1
2023-03-08T10:02:41.167Z,5.1
2023-03-08T10:03:45.028Z,5.1
2023-03-08T10:04:48.205Z,5.1
2023-03-08T10:06:13.037Z,5.1
2023-03-08T10:07:16.443Z,5.1
2023-03-08T10:08:19.641Z,5.1
2023-03-08T10:09:23.122Z,5.1
2023-03-08T10:10:26.571Z,5.1
2023-03-08T10:11:30.192Z,5
2023-03-08T10:12:33.304Z,5
2023-03-08T10:13:37.027Z,5
2023-03-08T10:14:39.658Z,5.1
2023-03-08T10:15:43.606Z,5.1
2023-03-08T10:16:46.680Z,5.1
2023-03-08T10:17:50.457Z,5.1
2023-03-08T10:18:53.873Z,5.1
2023-03-08T10:19:57.322Z,5.2
2023-03-08T10:21:01.083Z,5.2
2023-03-08T10:22:04.427Z,5.2
2023-03-08T10:23:08.212Z,5.2
2023-03-08T10:24:11.309Z,5.2
2023-03-08T10:25:14.670Z,5.2
2023-03-08T10:26:18.303Z,5.2
2023-03-08T10:27:21.796Z,5.3
2023-03-08T10:28:24.550Z,5.3
2023-03-08T10:29:28.290Z,5.3
2023-03-08T10:30:32.073Z,5.3
2023-03-08T10:31:36.469Z,5.3
2023-03-08T10:32:39.355Z,5.3
2023-03-08T10:33:42.970Z,5.3
2023-03-08T10:34:46.111Z,5.3
2023-03-08T10:35:49.633Z,5.3
2023-03-08T10:36:53.607Z,5.3
2023-03-08T10:37:56.892Z,5.3
2023-03-08T10:39:00.326Z,5.3
2023-03-08T10:40:07.672Z,5.3
2023-03-08T10:41:11.117Z,5.3
2023-03-08T10:42:14.478Z,5.3
2023-03-08T10:43:18.330Z,5.3
2023-03-08T10:44:23.367Z,5.3
2023-03-08T10:45:26.447Z,5.3
2023-03-08T10:46:29.310Z,5.3
2023-03-08T10:47:33.897Z,5.3
2023-03-08T10:48:37.449Z,5.3
2023-03-08T10:49:40.470Z,5.3
2023-03-08T10:50:43.480Z,5.3
2023-03-08T10:51:46.979Z,5.2
2023-03-08T10:52:50.718Z,5.3
2023-03-08T10:53:53.919Z,5.3
2023-03-08T10:54:57.939Z,5.3
2023-03-08T10:56:01.530Z,5.3
2023-03-08T10:57:04.465Z,5.3
2023-03-08T10:58:07.296Z,5.3
2023-03-08T10:59:10.389Z,5.3
2023-03-08T11:00:13.759Z,5.4
2023-03-08T11:01:16.754Z,5.4
2023-03-08T11:02:19.602Z,5.5
2023-03-08T11:03:23.927Z,5.5
2023-03-08T11:04:27.148Z,5.5
2023-03-08T11:05:31.109Z,5.5
2023-03-08T11:06:34.497Z,5.6
2023-03-08T11:07:37.280Z,5.6
2023-03-08T11:08:40.476Z,5.6
2023-03-08T11:09:43.085Z,5.6
2023-03-08T11:10:46.937Z,5.6
2023-03-08T11:11:51.161Z,5.7
2023-03-08T11:12:54.539Z,5.7
2023-03-08T11:13:57.818Z,5.7
2023-03-08T11:15:01.086Z,5.7
2023-03-08T11:16:06.071Z,5.7
2023-03-08T11:17:10.302Z,5.7
2023-03-08T11:18:13.617Z,5.7
2023-03-08T11:19:17.990Z,5.8
2023-03-08T11:20:21.375Z,5.8
2023-03-08T11:21:24.792Z,5.9
2023-03-08T11:22:27.813Z,5.9
2023-03-08T11:23:31.514Z,5.9
2023-03-08T11:24:35.254Z,5.9
2023-03-08T11:25:38.836Z,6
2023-03-08T11:26:42.429Z,6
2023-03-08T11:27:46.805Z,6
2023-03-08T11:28:50.068Z,6.1
2023-03-08T11:29:53.659Z,6.1
2023-03-08T11:30:56.799Z,6.1
2023-03-08T11:31:59.648Z,6.2
2023-03-08T11:33:03.723Z,6.2
2023-03-08T11:34:07.621Z,6.2
2023-03-08T11:35:12.048Z,6.3
2023-03-08T11:36:15.648Z,6.3
2023-03-08T11:37:19.022Z,6.3
2023-03-08T11:38:22.370Z,6.4
2023-03-08T11:39:25.871Z,6.5
2023-03-08T11:40:28.732Z,6.5
2023-03-08T11:41:32.206Z,6.6
2023-03-08T11:42:35.377Z,6.8
2023-03-08T11:43:38.464Z,6.8
2023-03-08T11:44:42.152Z,6.9
2023-03-08T11:45:45.807Z,7.1
2023-03-08T11:46:49.228Z,7.2
2023-03-08T11:47:52.743Z,7.2
2023-03-08T11:48:56.055Z,7.3
2023-03-08T11:50:00.215Z,7.4
2023-03-08T11:51:04.648Z,7.4
2023-03-08T11:52:07.650Z,7.5
2023-03-08T11:53:11.447Z,7.5
2023-03-08T11:54:15.247Z,7.6
2023-03-08T11:55:18.526Z,7.6
2023-03-08T11:56:21.989Z,7.6
2023-03-08T11:57:25.630Z,7.7
2023-03-08T11:58:29.182Z,7.7
2023-03-08T11:59:32.889Z,7.7
2023-03-08T12:00:36.597Z,7.7
2023-03-08T12:01:40.171Z,7.7
2023-03-08T12:02:43.737Z,7.7
2023-03-08T12:03:47.388Z,7.7
2023-03-08T12:04:51.767Z,7.7
2023-03-08T12:05:56.371Z,7.7
2023-03-08T12:07:01.666Z,7.7
2023-03-08T12:08:05.405Z,7.7
2023-03-08T12:09:08.721Z,7.7
2023-03-08T12:10:12.672Z,7.8
2023-03-08T12:11:16.996Z,7.8
2023-03-08T12:12:20.315Z,7.9
2023-03-08T12:13:24.030Z,8
2023-03-08T12:14:27.505Z,8.1
2023-03-08T12:15:30.774Z,8.3
2023-03-08T12:16:35.646Z,8.4
2023-03-08T12:17:41.129Z,8.6
2023-03-08T12:18:44.375Z,8.7
2023-03-08T12:19:48.031Z,8.8
2023-03-08T12:20:51.486Z,8.9
2023-03-08T12:21:55.150Z,9
2023-03-08T12:22:59.327Z,9.1
2023-03-08T12:24:05.260Z,9.2
2023-03-08T12:25:08.603Z,9.2
2023-03-08T12:26:12.062Z,9.3
2023-03-08T12:27:15.049Z,9.3
2023-03-08T12:28:19.077Z,9.2
2023-03-08T12:29:24.389Z,9.3
2023-03-08T12:30:27.830Z,9.2
2023-03-08T12:31:31.617Z,9.2
2023-03-08T12:32:36.056Z,9.2
2023-03-08T12:33:40.708Z,9.1
2023-03-08T12:34:43.659Z,9.1
2023-03-08T12:35:47.446Z,9.1
2023-03-08T12:36:50.868Z,9
2023-03-08T12:37:54.716Z,9
2023-03-08T12:38:58.931Z,9
2023-03-08T12:40:02.135Z,8.9
2023-03-08T12:41:05.634Z,8.9
2023-03-08T12:42:09.232Z,8.9
2023-03-08T12:43:13.052Z,8.8
2023-03-08T12:44:16.630Z,8.8
2023-03-08T12:45:19.360Z,8.8
2023-03-08T12:46:22.860Z,8.8
2023-03-08T12:47:26.525Z,8.8
2023-03-08T12:48:30.048Z,8.8
2023-03-08T12:49:33.977Z,8.7
2023-03-08T12:50:38.057Z,8.8
2023-03-08T12:51:41.654Z,8.8
2023-03-08T12:52:45.709Z,8.8
2023-03-08T12:53:49.283Z,8.8
2023-03-08T12:54:53.341Z,8.8
2023-03-08T12:55:57.462Z,8.8
2023-03-08T12:57:00.906Z,8.9
2023-03-08T12:58:04.082Z,8.8
2023-03-08T12:59:07.803Z,8.9
2023-03-08T13:00:10.967Z,8.8
2023-03-08T13:01:14.674Z,8.8
2023-03-08T13:02:17.697Z,8.8
2023-03-08T13:03:21.355Z,8.8
2023-03-08T13:04:43.033Z,8.8
2023-03-08T13:05:47.108Z,8.9
2023-03-08T13:06:50.258Z,9
2023-03-08T13:07:53.056Z,9
2023-03-08T13:08:56.154Z,9.1
2023-03-08T13:09:59.952Z,9.2
2023-03-08T13:11:03.332Z,9.2
2023-03-08T13:12:07.027Z,9.3
2023-03-08T13:13:13.806Z,9.4
2023-03-08T13:14:42.536Z,9.4
2023-03-08T13:15:45.698Z,9.4
2023-03-08T13:16:48.956Z,9.5
2023-03-08T13:17:51.879Z,9.5
2023-03-08T13:18:55.990Z,9.5
2023-03-08T13:19:59.672Z,9.6
2023-03-08T13:21:03.325Z,9.7
2023-03-08T13:22:06.146Z,9.7
2023-03-08T13:23:08.720Z,9.7
2023-03-08T13:24:12.533Z,9.7
2023-03-08T13:25:16.604Z,9.7
2023-03-08T13:26:20.372Z,9.7
2023-03-08T13:27:24.542Z,9.7
2023-03-08T13:28:48.397Z,9.7
2023-03-08T13:29:52.957Z,9.7
2023-03-08T13:30:57.123Z,9.7
2023-03-08T13:32:00.207Z,9.7
2023-03-08T13:33:03.421Z,9.7
2023-03-08T13:34:06.540Z,9.7
2023-03-08T13:35:09.601Z,9.7
2023-03-08T13:36:12.769Z,9.7
2023-03-08T13:37:16.226Z,9.6
2023-03-08T13:38:19.916Z,9.6
2023-03-08T13:39:23.234Z,9.6
2023-03-08T13:40:27.572Z,9.6
2023-03-08T13:41:30.964Z,9.6
2023-03-08T13:42:34.458Z,9.6
2023-03-08T13:43:38.261Z,9.5
2023-03-08T13:44:40.998Z,9.5
2023-03-08T13:45:43.806Z,9.5
2023-03-08T13:46:47.315Z,9.4
2023-03-08T13:47:50.842Z,9.4
2023-03-08T13:48:53.364Z,9.4
2023-03-08T13:49:56.718Z,9.3
2023-03-08T13:50:59.835Z,9.3
2023-03-08T13:52:02.369Z,9.3
2023-03-08T13:53:05.644Z,9.3
2023-03-08T13:54:08.959Z,9.2
2023-03-08T13:55:13.298Z,9.2
2023-03-08T13:56:17.802Z,9.2
2023-03-08T13:57:21.396Z,9.2
2023-03-08T13:58:24.761Z,9.2
2023-03-08T13:59:28.929Z,9.1
2023-03-08T14:00:32.326Z,9.1
2023-03-08T14:01:36.084Z,9.1
2023-03-08T14:02:40.255Z,9.1
2023-03-08T14:03:44.445Z,9.1
2023-03-08T14:04:48.269Z,9
2023-03-08T14:05:52.293Z,9
2023-03-08T14:06:54.945Z,9
2023-03-08T14:07:58.651Z,9.1
2023-03-08T14:09:02.393Z,9.1
2023-03-08T14:10:06.348Z,9
2023-03-08T14:11:09.746Z,9
2023-03-08T14:12:14.212Z,8.9
2023-03-08T14:13:18.018Z,8.9
2023-03-08T14:14:21.487Z,8.9
2023-03-08T14:15:24.863Z,8.8
2023-03-08T14:16:28.714Z,8.8
2023-03-08T14:17:32.188Z,8.8
2023-03-08T14:18:36.744Z,8.8
2023-03-08T14:19:41.577Z,8.8
2023-03-08T14:20:45.351Z,8.8
2023-03-08T14:21:47.819Z,8.8
2023-03-08T14:22:51.593Z,8.8
2023-03-08T14:23:55.353Z,8.8
2023-03-08T14:24:58.633Z,8.8
2023-03-08T14:26:02.142Z,8.8
2023-03-08T14:27:05.486Z,8.8
2023-03-08T14:28:09.646Z,8.8
2023-03-08T14:29:12.753Z,8.7
2023-03-08T14:30:16.549Z,8.8
2023-03-08T14:31:20.690Z,8.8
2023-03-08T14:32:24.397Z,8.7
2023-03-08T14:33:42.910Z,8.7
2023-03-08T14:34:46.591Z,8.7
2023-03-08T14:35:49.763Z,8.7
2023-03-08T14:36:53.363Z,8.7
2023-03-08T14:37:57.190Z,8.7
2023-03-08T14:39:00.689Z,8.7